sensor_id;sensor_type;location;lat;lon;timestamp;P1;durP1;ratioP1;P2;durP2;ratioP2
2177;SDS011;1095;50.992;6.798;2022-10-16T00:01:27;8.32;;;5.18;;
2177;SDS011;1095;50.992;6.798;2022-10-16T00:03:56;6.63;;;5.07;;
2177;SDS011;1095;50.992;6.798;2022-10-16T00:06:26;8.25;;;4.78;;
2177;SDS011;1095;50.992;6.798;2022-10-16T00:08:54;10.43;;;4.82;;
2177;SDS011;1095;50.992;6.798;2022-10-16T00:11:23;7.95;;;4.82;;
2177;SDS011;1095;50.992;6.798;2022-10-16T00:13:54;8.07;;;4.88;;
2177;SDS011;1095;50.992;6.798;2022-10-16T00:16:23;6.60;;;4.63;;
2177;SDS011;1095;50.992;6.798;2022-10-16T00:18:50;8.98;;;5.55;;
2177;SDS011;1095;50.992;6.798;2022-10-16T00:21:17;5.63;;;4.63;;
2177;SDS011;1095;50.992;6.798;2022-10-16T00:23:46;6.03;;;4.85;;
2177;SDS011;1095;50.992;6.798;2022-10-16T00:26:16;6.28;;;4.60;;
2177;SDS011;1095;50.992;6.798;2022-10-16T00:28:45;5.22;;;4.20;;
2177;SDS011;1095;50.992;6.798;2022-10-16T00:31:12;8.77;;;4.75;;
2177;SDS011;1095;50.992;6.798;2022-10-16T00:33:42;5.53;;;4.20;;
2177;SDS011;1095;50.992;6.798;2022-10-16T00:36:10;6.82;;;4.60;;
2177;SDS011;1095;50.992;6.798;2022-10-16T00:38:38;6.22;;;4.40;;
2177;SDS011;1095;50.992;6.798;2022-10-16T00:41:06;9.23;;;4.50;;
2177;SDS011;1095;50.992;6.798;2022-10-16T00:43:35;8.02;;;4.72;;
2177;SDS011;1095;50.992;6.798;2022-10-16T00:46:05;7.32;;;4.63;;
2177;SDS011;1095;50.992;6.798;2022-10-16T00:48:39;6.53;;;4.78;;
2177;SDS011;1095;50.992;6.798;2022-10-16T00:51:06;5.00;;;4.40;;
2177;SDS011;1095;50.992;6.798;2022-10-16T00:53:33;5.70;;;4.50;;
2177;SDS011;1095;50.992;6.798;2022-10-16T00:56:01;7.50;;;4.93;;
2177;SDS011;1095;50.992;6.798;2022-10-16T00:58:29;5.97;;;4.82;;
2177;SDS011;1095;50.992;6.798;2022-10-16T01:00:56;7.20;;;5.05;;
2177;SDS011;1095;50.992;6.798;2022-10-16T01:03:24;5.20;;;4.43;;
2177;SDS011;1095;50.992;6.798;2022-10-16T01:05:54;6.15;;;4.85;;
2177;SDS011;1095;50.992;6.798;2022-10-16T01:08:34;7.40;;;5.03;;
2177;SDS011;1095;50.992;6.798;2022-10-16T01:11:11;6.55;;;5.00;;
2177;SDS011;1095;50.992;6.798;2022-10-16T01:13:46;6.40;;;4.97;;
2177;SDS011;1095;50.992;6.798;2022-10-16T01:16:16;7.72;;;5.18;;
2177;SDS011;1095;50.992;6.798;2022-10-16T01:18:49;6.57;;;4.90;;
2177;SDS011;1095;50.992;6.798;2022-10-16T01:21:21;6.10;;;4.57;;
2177;SDS011;1095;50.992;6.798;2022-10-16T01:23:58;8.95;;;5.35;;
2177;SDS011;1095;50.992;6.798;2022-10-16T01:26:41;5.95;;;4.43;;
2177;SDS011;1095;50.992;6.798;2022-10-16T01:29:21;8.55;;;4.70;;
2177;SDS011;1095;50.992;6.798;2022-10-16T01:31:53;9.68;;;5.13;;
2177;SDS011;1095;50.992;6.798;2022-10-16T01:34:25;5.53;;;4.68;;
2177;SDS011;1095;50.992;6.798;2022-10-16T01:36:59;7.05;;;5.18;;
2177;SDS011;1095;50.992;6.798;2022-10-16T01:39:37;10.27;;;5.63;;
2177;SDS011;1095;50.992;6.798;2022-10-16T01:42:07;8.88;;;6.10;;
2177;SDS011;1095;50.992;6.798;2022-10-16T01:44:40;9.18;;;6.10;;
2177;SDS011;1095;50.992;6.798;2022-10-16T01:47:10;6.80;;;6.10;;
2177;SDS011;1095;50.992;6.798;2022-10-16T01:49:40;11.93;;;6.03;;
2177;SDS011;1095;50.992;6.798;2022-10-16T01:52:12;7.95;;;7.15;;
2177;SDS011;1095;50.992;6.798;2022-10-16T01:54:48;10.13;;;6.80;;
2177;SDS011;1095;50.992;6.798;2022-10-16T01:57:18;10.48;;;7.43;;
2177;SDS011;1095;50.992;6.798;2022-10-16T01:59:51;8.60;;;6.90;;
2177;SDS011;1095;50.992;6.798;2022-10-16T02:02:21;7.72;;;6.90;;
2177;SDS011;1095;50.992;6.798;2022-10-16T02:04:49;8.48;;;6.95;;
2177;SDS011;1095;50.992;6.798;2022-10-16T02:07:20;9.38;;;7.20;;
2177;SDS011;1095;50.992;6.798;2022-10-16T02:09:48;10.48;;;7.78;;
2177;SDS011;1095;50.992;6.798;2022-10-16T02:12:15;7.85;;;7.05;;
2177;SDS011;1095;50.992;6.798;2022-10-16T02:14:52;9.70;;;6.30;;
2177;SDS011;1095;50.992;6.798;2022-10-16T02:17:19;8.88;;;6.55;;
2177;SDS011;1095;50.992;6.798;2022-10-16T02:19:49;10.50;;;6.47;;
2177;SDS011;1095;50.992;6.798;2022-10-16T02:22:20;7.78;;;6.50;;
2177;SDS011;1095;50.992;6.798;2022-10-16T02:24:52;8.55;;;6.38;;
2177;SDS011;1095;50.992;6.798;2022-10-16T02:27:23;7.65;;;6.70;;
2177;SDS011;1095;50.992;6.798;2022-10-16T02:29:55;9.18;;;6.65;;
2177;SDS011;1095;50.992;6.798;2022-10-16T02:32:32;8.50;;;7.63;;
2177;SDS011;1095;50.992;6.798;2022-10-16T02:35:00;8.77;;;7.03;;
2177;SDS011;1095;50.992;6.798;2022-10-16T02:37:29;8.32;;;7.38;;
2177;SDS011;1095;50.992;6.798;2022-10-16T02:39:58;8.43;;;6.78;;
2177;SDS011;1095;50.992;6.798;2022-10-16T02:42:27;8.52;;;7.07;;
2177;SDS011;1095;50.992;6.798;2022-10-16T02:44:59;8.80;;;6.80;;
2177;SDS011;1095;50.992;6.798;2022-10-16T02:47:26;7.80;;;7.00;;
2177;SDS011;1095;50.992;6.798;2022-10-16T02:49:53;9.23;;;6.90;;
2177;SDS011;1095;50.992;6.798;2022-10-16T02:52:19;8.32;;;7.03;;
2177;SDS011;1095;50.992;6.798;2022-10-16T02:54:49;7.65;;;6.85;;
2177;SDS011;1095;50.992;6.798;2022-10-16T02:57:15;10.10;;;6.85;;
2177;SDS011;1095;50.992;6.798;2022-10-16T02:59:43;8.18;;;7.05;;
2177;SDS011;1095;50.992;6.798;2022-10-16T03:02:11;9.90;;;6.40;;
2177;SDS011;1095;50.992;6.798;2022-10-16T03:04:38;7.20;;;6.28;;
2177;SDS011;1095;50.992;6.798;2022-10-16T03:07:04;7.18;;;6.03;;
2177;SDS011;1095;50.992;6.798;2022-10-16T03:09:31;9.18;;;6.20;;
2177;SDS011;1095;50.992;6.798;2022-10-16T03:11:58;7.70;;;5.75;;
2177;SDS011;1095;50.992;6.798;2022-10-16T03:14:24;9.30;;;5.78;;
2177;SDS011;1095;50.992;6.798;2022-10-16T03:16:51;7.43;;;5.20;;
2177;SDS011;1095;50.992;6.798;2022-10-16T03:19:19;6.15;;;4.47;;
2177;SDS011;1095;50.992;6.798;2022-10-16T03:21:46;5.20;;;4.70;;
2177;SDS011;1095;50.992;6.798;2022-10-16T03:24:13;8.55;;;4.85;;
2177;SDS011;1095;50.992;6.798;2022-10-16T03:26:39;5.68;;;4.63;;
2177;SDS011;1095;50.992;6.798;2022-10-16T03:29:06;6.05;;;4.80;;
2177;SDS011;1095;50.992;6.798;2022-10-16T03:31:33;5.65;;;4.82;;
2177;SDS011;1095;50.992;6.798;2022-10-16T03:33:59;6.32;;;4.75;;
2177;SDS011;1095;50.992;6.798;2022-10-16T03:36:27;7.75;;;4.60;;
2177;SDS011;1095;50.992;6.798;2022-10-16T03:38:54;6.13;;;5.07;;
2177;SDS011;1095;50.992;6.798;2022-10-16T03:41:21;5.97;;;4.60;;
2177;SDS011;1095;50.992;6.798;2022-10-16T03:43:47;5.75;;;4.20;;
2177;SDS011;1095;50.992;6.798;2022-10-16T03:46:17;5.65;;;4.10;;
2177;SDS011;1095;50.992;6.798;2022-10-16T03:48:43;4.57;;;4.03;;
2177;SDS011;1095;50.992;6.798;2022-10-16T03:51:10;6.20;;;3.97;;
2177;SDS011;1095;50.992;6.798;2022-10-16T03:53:38;6.68;;;4.22;;
2177;SDS011;1095;50.992;6.798;2022-10-16T03:56:05;4.95;;;3.63;;
2177;SDS011;1095;50.992;6.798;2022-10-16T03:58:32;4.03;;;3.45;;
2177;SDS011;1095;50.992;6.798;2022-10-16T04:00:58;4.20;;;3.58;;
2177;SDS011;1095;50.992;6.798;2022-10-16T04:03:25;5.88;;;3.58;;
2177;SDS011;1095;50.992;6.798;2022-10-16T04:05:51;4.65;;;3.38;;
2177;SDS011;1095;50.992;6.798;2022-10-16T04:08:18;7.55;;;3.35;;
2177;SDS011;1095;50.992;6.798;2022-10-16T04:10:46;5.60;;;3.30;;
2177;SDS011;1095;50.992;6.798;2022-10-16T04:13:13;4.15;;;3.50;;
2177;SDS011;1095;50.992;6.798;2022-10-16T04:15:39;6.90;;;3.40;;
2177;SDS011;1095;50.992;6.798;2022-10-16T04:18:06;7.88;;;3.78;;
2177;SDS011;1095;50.992;6.798;2022-10-16T04:20:33;5.38;;;3.40;;
2177;SDS011;1095;50.992;6.798;2022-10-16T04:23:03;5.00;;;3.88;;
2177;SDS011;1095;50.992;6.798;2022-10-16T04:25:30;5.43;;;3.70;;
2177;SDS011;1095;50.992;6.798;2022-10-16T04:27:58;5.70;;;3.50;;
2177;SDS011;1095;50.992;6.798;2022-10-16T04:30:25;4.95;;;3.33;;
2177;SDS011;1095;50.992;6.798;2022-10-16T04:32:52;6.97;;;3.45;;
2177;SDS011;1095;50.992;6.798;2022-10-16T04:35:20;5.03;;;3.60;;
2177;SDS011;1095;50.992;6.798;2022-10-16T04:37:47;7.55;;;3.45;;
2177;SDS011;1095;50.992;6.798;2022-10-16T04:40:16;4.13;;;3.40;;
2177;SDS011;1095;50.992;6.798;2022-10-16T04:42:42;3.70;;;3.30;;
2177;SDS011;1095;50.992;6.798;2022-10-16T04:45:10;4.63;;;3.38;;
2177;SDS011;1095;50.992;6.798;2022-10-16T04:47:37;5.95;;;3.53;;
2177;SDS011;1095;50.992;6.798;2022-10-16T04:50:04;3.67;;;3.33;;
2177;SDS011;1095;50.992;6.798;2022-10-16T04:52:32;4.40;;;2.97;;
2177;SDS011;1095;50.992;6.798;2022-10-16T04:54:58;4.15;;;3.50;;
2177;SDS011;1095;50.992;6.798;2022-10-16T04:57:27;5.70;;;3.50;;
2177;SDS011;1095;50.992;6.798;2022-10-16T04:59:54;3.75;;;3.33;;
2177;SDS011;1095;50.992;6.798;2022-10-16T05:02:22;5.68;;;3.60;;
2177;SDS011;1095;50.992;6.798;2022-10-16T05:04:49;4.53;;;3.28;;
2177;SDS011;1095;50.992;6.798;2022-10-16T05:07:15;4.70;;;3.40;;
2177;SDS011;1095;50.992;6.798;2022-10-16T05:09:43;5.85;;;3.75;;
2177;SDS011;1095;50.992;6.798;2022-10-16T05:12:10;5.13;;;3.70;;
2177;SDS011;1095;50.992;6.798;2022-10-16T05:14:36;5.53;;;3.25;;
2177;SDS011;1095;50.992;6.798;2022-10-16T05:17:03;6.25;;;4.10;;
2177;SDS011;1095;50.992;6.798;2022-10-16T05:19:31;6.38;;;4.13;;
2177;SDS011;1095;50.992;6.798;2022-10-16T05:21:58;5.63;;;4.25;;
2177;SDS011;1095;50.992;6.798;2022-10-16T05:24:25;7.90;;;4.10;;
2177;SDS011;1095;50.992;6.798;2022-10-16T05:26:52;4.70;;;4.20;;
2177;SDS011;1095;50.992;6.798;2022-10-16T05:29:19;5.70;;;3.95;;
2177;SDS011;1095;50.992;6.798;2022-10-16T05:31:46;6.55;;;4.22;;
2177;SDS011;1095;50.992;6.798;2022-10-16T05:34:12;8.95;;;4.15;;
2177;SDS011;1095;50.992;6.798;2022-10-16T05:36:40;5.05;;;4.25;;
2177;SDS011;1095;50.992;6.798;2022-10-16T05:39:10;6.63;;;4.18;;
2177;SDS011;1095;50.992;6.798;2022-10-16T05:41:36;7.07;;;4.07;;
2177;SDS011;1095;50.992;6.798;2022-10-16T05:44:03;6.00;;;4.18;;
2177;SDS011;1095;50.992;6.798;2022-10-16T05:46:31;4.35;;;3.90;;
2177;SDS011;1095;50.992;6.798;2022-10-16T05:48:58;5.30;;;4.32;;
2177;SDS011;1095;50.992;6.798;2022-10-16T05:51:25;4.60;;;3.80;;
2177;SDS011;1095;50.992;6.798;2022-10-16T05:53:53;9.18;;;4.35;;
2177;SDS011;1095;50.992;6.798;2022-10-16T05:56:19;5.28;;;4.40;;
2177;SDS011;1095;50.992;6.798;2022-10-16T05:58:46;5.85;;;4.40;;
2177;SDS011;1095;50.992;6.798;2022-10-16T06:01:16;5.95;;;4.35;;
2177;SDS011;1095;50.992;6.798;2022-10-16T06:03:49;5.13;;;4.57;;
2177;SDS011;1095;50.992;6.798;2022-10-16T06:06:16;6.40;;;4.50;;
2177;SDS011;1095;50.992;6.798;2022-10-16T06:08:45;4.70;;;4.18;;
2177;SDS011;1095;50.992;6.798;2022-10-16T06:11:17;5.20;;;3.88;;
2177;SDS011;1095;50.992;6.798;2022-10-16T06:13:45;5.25;;;4.50;;
2177;SDS011;1095;50.992;6.798;2022-10-16T06:16:14;7.07;;;4.88;;
2177;SDS011;1095;50.992;6.798;2022-10-16T06:18:41;8.30;;;5.22;;
2177;SDS011;1095;50.992;6.798;2022-10-16T06:21:08;8.23;;;4.72;;
2177;SDS011;1095;50.992;6.798;2022-10-16T06:23:36;5.53;;;5.03;;
2177;SDS011;1095;50.992;6.798;2022-10-16T06:26:06;6.22;;;4.82;;
2177;SDS011;1095;50.992;6.798;2022-10-16T06:28:35;6.30;;;5.18;;
2177;SDS011;1095;50.992;6.798;2022-10-16T06:31:02;7.70;;;5.20;;
2177;SDS011;1095;50.992;6.798;2022-10-16T06:33:30;7.82;;;5.85;;
2177;SDS011;1095;50.992;6.798;2022-10-16T06:36:01;7.60;;;5.45;;
2177;SDS011;1095;50.992;6.798;2022-10-16T06:38:28;7.90;;;5.82;;
2177;SDS011;1095;50.992;6.798;2022-10-16T06:40:55;7.65;;;5.88;;
2177;SDS011;1095;50.992;6.798;2022-10-16T06:43:22;6.90;;;5.60;;
2177;SDS011;1095;50.992;6.798;2022-10-16T06:45:54;7.60;;;5.82;;
2177;SDS011;1095;50.992;6.798;2022-10-16T06:48:21;6.77;;;5.53;;
2177;SDS011;1095;50.992;6.798;2022-10-16T06:50:55;7.65;;;5.55;;
2177;SDS011;1095;50.992;6.798;2022-10-16T06:53:23;7.93;;;5.78;;
2177;SDS011;1095;50.992;6.798;2022-10-16T06:55:49;8.88;;;5.80;;
2177;SDS011;1095;50.992;6.798;2022-10-16T06:58:17;10.18;;;5.72;;
2177;SDS011;1095;50.992;6.798;2022-10-16T07:00:44;6.60;;;5.80;;
2177;SDS011;1095;50.992;6.798;2022-10-16T07:03:12;10.43;;;6.13;;
2177;SDS011;1095;50.992;6.798;2022-10-16T07:05:39;6.05;;;5.45;;
2177;SDS011;1095;50.992;6.798;2022-10-16T07:08:07;7.60;;;5.70;;
2177;SDS011;1095;50.992;6.798;2022-10-16T07:10:34;8.40;;;6.55;;
2177;SDS011;1095;50.992;6.798;2022-10-16T07:13:00;8.73;;;6.20;;
2177;SDS011;1095;50.992;6.798;2022-10-16T07:15:27;12.65;;;6.78;;
2177;SDS011;1095;50.992;6.798;2022-10-16T07:17:54;9.25;;;6.88;;
2177;SDS011;1095;50.992;6.798;2022-10-16T07:20:22;9.23;;;7.13;;
2177;SDS011;1095;50.992;6.798;2022-10-16T07:22:48;9.30;;;6.53;;
2177;SDS011;1095;50.992;6.798;2022-10-16T07:25:15;10.10;;;6.10;;
2177;SDS011;1095;50.992;6.798;2022-10-16T07:27:42;6.20;;;4.95;;
2177;SDS011;1095;50.992;6.798;2022-10-16T07:30:09;5.95;;;5.00;;
2177;SDS011;1095;50.992;6.798;2022-10-16T07:32:36;7.80;;;5.32;;
2177;SDS011;1095;50.992;6.798;2022-10-16T07:35:03;8.10;;;5.25;;
2177;SDS011;1095;50.992;6.798;2022-10-16T07:37:31;7.63;;;4.85;;
2177;SDS011;1095;50.992;6.798;2022-10-16T07:39:58;6.03;;;5.15;;
2177;SDS011;1095;50.992;6.798;2022-10-16T07:42:28;5.93;;;5.03;;
2177;SDS011;1095;50.992;6.798;2022-10-16T07:44:55;7.05;;;4.50;;
2177;SDS011;1095;50.992;6.798;2022-10-16T07:47:27;5.50;;;4.30;;
2177;SDS011;1095;50.992;6.798;2022-10-16T07:49:53;6.38;;;4.50;;
2177;SDS011;1095;50.992;6.798;2022-10-16T07:52:23;5.07;;;4.47;;
2177;SDS011;1095;50.992;6.798;2022-10-16T07:54:54;5.78;;;3.95;;
2177;SDS011;1095;50.992;6.798;2022-10-16T07:57:21;9.57;;;4.07;;
2177;SDS011;1095;50.992;6.798;2022-10-16T07:59:47;4.03;;;3.47;;
2177;SDS011;1095;50.992;6.798;2022-10-16T08:02:14;4.10;;;3.70;;
2177;SDS011;1095;50.992;6.798;2022-10-16T08:04:53;6.88;;;3.30;;
2177;SDS011;1095;50.992;6.798;2022-10-16T08:07:20;3.60;;;3.25;;
2177;SDS011;1095;50.992;6.798;2022-10-16T08:09:51;5.35;;;3.15;;
2177;SDS011;1095;50.992;6.798;2022-10-16T08:12:23;3.72;;;2.97;;
2177;SDS011;1095;50.992;6.798;2022-10-16T08:14:50;6.43;;;3.10;;
2177;SDS011;1095;50.992;6.798;2022-10-16T08:17:17;4.28;;;2.70;;
2177;SDS011;1095;50.992;6.798;2022-10-16T08:19:44;4.35;;;3.10;;
2177;SDS011;1095;50.992;6.798;2022-10-16T08:22:11;4.05;;;2.83;;
2177;SDS011;1095;50.992;6.798;2022-10-16T08:24:41;3.30;;;2.97;;
2177;SDS011;1095;50.992;6.798;2022-10-16T08:27:09;5.35;;;3.30;;
2177;SDS011;1095;50.992;6.798;2022-10-16T08:29:35;5.40;;;3.65;;
2177;SDS011;1095;50.992;6.798;2022-10-16T08:32:03;4.93;;;2.60;;
2177;SDS011;1095;50.992;6.798;2022-10-16T08:34:33;4.22;;;2.67;;
2177;SDS011;1095;50.992;6.798;2022-10-16T08:37:02;3.45;;;2.60;;
2177;SDS011;1095;50.992;6.798;2022-10-16T08:39:29;2.58;;;2.15;;
2177;SDS011;1095;50.992;6.798;2022-10-16T08:42:09;3.63;;;2.47;;
2177;SDS011;1095;50.992;6.798;2022-10-16T08:44:46;6.25;;;1.95;;
2177;SDS011;1095;50.992;6.798;2022-10-16T08:47:35;2.25;;;2.08;;
2177;SDS011;1095;50.992;6.798;2022-10-16T08:50:12;5.00;;;3.28;;
2177;SDS011;1095;50.992;6.798;2022-10-16T08:52:41;5.15;;;3.05;;
2177;SDS011;1095;50.992;6.798;2022-10-16T08:55:11;5.00;;;2.78;;
2177;SDS011;1095;50.992;6.798;2022-10-16T08:57:50;4.05;;;2.28;;
2177;SDS011;1095;50.992;6.798;2022-10-16T09:00:17;2.70;;;2.17;;
2177;SDS011;1095;50.992;6.798;2022-10-16T09:02:45;6.55;;;2.47;;
2177;SDS011;1095;50.992;6.798;2022-10-16T09:05:21;2.53;;;2.13;;
2177;SDS011;1095;50.992;6.798;2022-10-16T09:07:59;4.35;;;2.20;;
2177;SDS011;1095;50.992;6.798;2022-10-16T09:10:38;5.70;;;1.95;;
2177;SDS011;1095;50.992;6.798;2022-10-16T09:13:14;2.97;;;2.05;;
2177;SDS011;1095;50.992;6.798;2022-10-16T09:15:48;2.35;;;1.90;;
2177;SDS011;1095;50.992;6.798;2022-10-16T09:18:23;5.82;;;2.35;;
2177;SDS011;1095;50.992;6.798;2022-10-16T09:20:59;2.53;;;1.85;;
2177;SDS011;1095;50.992;6.798;2022-10-16T09:23:36;2.70;;;1.95;;
2177;SDS011;1095;50.992;6.798;2022-10-16T09:26:03;3.33;;;2.20;;
2177;SDS011;1095;50.992;6.798;2022-10-16T09:28:33;2.95;;;2.58;;
2177;SDS011;1095;50.992;6.798;2022-10-16T09:30:59;2.50;;;1.85;;
2177;SDS011;1095;50.992;6.798;2022-10-16T09:33:28;3.08;;;2.35;;
2177;SDS011;1095;50.992;6.798;2022-10-16T09:35:59;6.40;;;2.53;;
2177;SDS011;1095;50.992;6.798;2022-10-16T09:38:26;4.63;;;2.65;;
2177;SDS011;1095;50.992;6.798;2022-10-16T09:40:54;1.80;;;1.70;;
2177;SDS011;1095;50.992;6.798;2022-10-16T09:43:23;4.07;;;2.00;;
2177;SDS011;1095;50.992;6.798;2022-10-16T09:45:58;4.32;;;1.90;;
2177;SDS011;1095;50.992;6.798;2022-10-16T09:48:27;3.85;;;2.33;;
2177;SDS011;1095;50.992;6.798;2022-10-16T09:51:06;4.78;;;1.85;;
2177;SDS011;1095;50.992;6.798;2022-10-16T09:53:44;3.60;;;2.17;;
2177;SDS011;1095;50.992;6.798;2022-10-16T09:56:20;5.95;;;2.30;;
2177;SDS011;1095;50.992;6.798;2022-10-16T09:58:49;3.10;;;1.90;;
2177;SDS011;1095;50.992;6.798;2022-10-16T10:01:18;4.00;;;1.60;;
2177;SDS011;1095;50.992;6.798;2022-10-16T10:03:46;3.80;;;1.85;;
2177;SDS011;1095;50.992;6.798;2022-10-16T10:06:16;3.63;;;1.85;;
2177;SDS011;1095;50.992;6.798;2022-10-16T10:08:58;2.25;;;1.73;;
2177;SDS011;1095;50.992;6.798;2022-10-16T10:14:21;7.63;;;1.95;;
2177;SDS011;1095;50.992;6.798;2022-10-16T10:17:06;3.13;;;1.63;;
2177;SDS011;1095;50.992;6.798;2022-10-16T10:19:38;2.35;;;1.67;;
2177;SDS011;1095;50.992;6.798;2022-10-16T10:22:13;1.90;;;1.67;;
2177;SDS011;1095;50.992;6.798;2022-10-16T10:24:43;3.33;;;1.83;;
2177;SDS011;1095;50.992;6.798;2022-10-16T10:27:10;5.45;;;1.52;;
2177;SDS011;1095;50.992;6.798;2022-10-16T10:29:46;4.57;;;1.63;;
2177;SDS011;1095;50.992;6.798;2022-10-16T10:32:27;4.80;;;1.92;;
2177;SDS011;1095;50.992;6.798;2022-10-16T10:35:07;2.85;;;1.60;;
2177;SDS011;1095;50.992;6.798;2022-10-16T10:37:50;1.65;;;1.23;;
2177;SDS011;1095;50.992;6.798;2022-10-16T10:40:28;2.08;;;1.50;;
2177;SDS011;1095;50.992;6.798;2022-10-16T10:43:07;4.45;;;1.70;;
2177;SDS011;1095;50.992;6.798;2022-10-16T10:45:42;4.28;;;1.85;;
2177;SDS011;1095;50.992;6.798;2022-10-16T10:48:16;5.60;;;1.75;;
2177;SDS011;1095;50.992;6.798;2022-10-16T10:50:49;5.10;;;1.50;;
2177;SDS011;1095;50.992;6.798;2022-10-16T10:55:53;5.95;;;2.10;;
2177;SDS011;1095;50.992;6.798;2022-10-16T10:58:49;4.38;;;1.73;;
2177;SDS011;1095;50.992;6.798;2022-10-16T11:01:30;4.45;;;1.73;;
2177;SDS011;1095;50.992;6.798;2022-10-16T11:04:11;4.38;;;1.63;;
2177;SDS011;1095;50.992;6.798;2022-10-16T11:06:53;2.58;;;1.50;;
2177;SDS011;1095;50.992;6.798;2022-10-16T11:09:25;4.95;;;1.95;;
2177;SDS011;1095;50.992;6.798;2022-10-16T11:11:55;6.47;;;2.65;;
2177;SDS011;1095;50.992;6.798;2022-10-16T11:14:26;3.67;;;1.90;;
2177;SDS011;1095;50.992;6.798;2022-10-16T11:16:56;6.07;;;1.77;;
2177;SDS011;1095;50.992;6.798;2022-10-16T11:19:31;3.97;;;1.48;;
2177;SDS011;1095;50.992;6.798;2022-10-16T11:22:04;2.95;;;1.52;;
2177;SDS011;1095;50.992;6.798;2022-10-16T11:24:37;8.15;;;1.90;;
2177;SDS011;1095;50.992;6.798;2022-10-16T11:27:14;5.28;;;2.00;;
2177;SDS011;1095;50.992;6.798;2022-10-16T11:29:44;2.38;;;1.52;;
2177;SDS011;1095;50.992;6.798;2022-10-16T11:32:21;3.45;;;2.00;;
2177;SDS011;1095;50.992;6.798;2022-10-16T11:34:55;3.47;;;1.83;;
2177;SDS011;1095;50.992;6.798;2022-10-16T11:37:27;5.82;;;2.10;;
2177;SDS011;1095;50.992;6.798;2022-10-16T11:40:02;3.78;;;1.98;;
2177;SDS011;1095;50.992;6.798;2022-10-16T11:42:41;7.45;;;2.00;;
2177;SDS011;1095;50.992;6.798;2022-10-16T11:45:15;4.88;;;2.05;;
2177;SDS011;1095;50.992;6.798;2022-10-16T11:47:54;4.43;;;1.90;;
2177;SDS011;1095;50.992;6.798;2022-10-16T11:50:31;3.40;;;1.98;;
2177;SDS011;1095;50.992;6.798;2022-10-16T11:53:04;2.92;;;1.73;;
2177;SDS011;1095;50.992;6.798;2022-10-16T11:55:42;6.38;;;1.85;;
2177;SDS011;1095;50.992;6.798;2022-10-16T11:58:13;4.55;;;2.10;;
2177;SDS011;1095;50.992;6.798;2022-10-16T12:00:51;3.65;;;2.20;;
2177;SDS011;1095;50.992;6.798;2022-10-16T12:03:25;4.30;;;1.75;;
2177;SDS011;1095;50.992;6.798;2022-10-16T12:05:58;5.30;;;1.83;;
2177;SDS011;1095;50.992;6.798;2022-10-16T12:08:37;5.10;;;2.22;;
2177;SDS011;1095;50.992;6.798;2022-10-16T12:11:08;4.70;;;1.75;;
2177;SDS011;1095;50.992;6.798;2022-10-16T12:13:36;5.32;;;2.10;;
2177;SDS011;1095;50.992;6.798;2022-10-16T12:16:19;5.80;;;1.63;;
2177;SDS011;1095;50.992;6.798;2022-10-16T12:18:48;4.03;;;1.70;;
2177;SDS011;1095;50.992;6.798;2022-10-16T12:21:16;4.38;;;2.28;;
2177;SDS011;1095;50.992;6.798;2022-10-16T12:23:48;4.18;;;1.73;;
2177;SDS011;1095;50.992;6.798;2022-10-16T12:26:23;3.22;;;2.13;;
2177;SDS011;1095;50.992;6.798;2022-10-16T12:28:51;5.75;;;1.90;;
2177;SDS011;1095;50.992;6.798;2022-10-16T12:31:19;2.85;;;1.45;;
2177;SDS011;1095;50.992;6.798;2022-10-16T12:33:53;5.57;;;1.85;;
2177;SDS011;1095;50.992;6.798;2022-10-16T12:36:29;7.43;;;2.00;;
2177;SDS011;1095;50.992;6.798;2022-10-16T12:38:58;4.60;;;1.85;;
2177;SDS011;1095;50.992;6.798;2022-10-16T12:41:26;5.07;;;1.83;;
2177;SDS011;1095;50.992;6.798;2022-10-16T12:43:55;8.13;;;1.83;;
2177;SDS011;1095;50.992;6.798;2022-10-16T12:46:34;5.35;;;1.67;;
2177;SDS011;1095;50.992;6.798;2022-10-16T12:49:23;4.13;;;1.98;;
2177;SDS011;1095;50.992;6.798;2022-10-16T12:52:03;1.65;;;1.25;;
2177;SDS011;1095;50.992;6.798;2022-10-16T12:54:31;4.13;;;1.73;;
2177;SDS011;1095;50.992;6.798;2022-10-16T12:57:19;7.40;;;2.95;;
2177;SDS011;1095;50.992;6.798;2022-10-16T12:59:59;4.85;;;1.30;;
2177;SDS011;1095;50.992;6.798;2022-10-16T13:02:49;2.42;;;1.08;;
2177;SDS011;1095;50.992;6.798;2022-10-16T13:05:46;2.85;;;1.48;;
2177;SDS011;1095;50.992;6.798;2022-10-16T13:08:35;3.85;;;1.52;;
2177;SDS011;1095;50.992;6.798;2022-10-16T13:11:18;4.90;;;1.80;;
2177;SDS011;1095;50.992;6.798;2022-10-16T13:13:58;4.50;;;1.60;;
2177;SDS011;1095;50.992;6.798;2022-10-16T13:16:48;6.88;;;1.90;;
2177;SDS011;1095;50.992;6.798;2022-10-16T13:19:23;3.17;;;1.58;;
2177;SDS011;1095;50.992;6.798;2022-10-16T13:21:58;3.75;;;1.38;;
2177;SDS011;1095;50.992;6.798;2022-10-16T13:24:48;3.20;;;1.70;;
2177;SDS011;1095;50.992;6.798;2022-10-16T13:27:29;3.25;;;1.40;;
2177;SDS011;1095;50.992;6.798;2022-10-16T13:30:11;1.98;;;1.15;;
2177;SDS011;1095;50.992;6.798;2022-10-16T13:32:39;4.00;;;1.63;;
2177;SDS011;1095;50.992;6.798;2022-10-16T13:35:20;3.95;;;1.70;;
2177;SDS011;1095;50.992;6.798;2022-10-16T13:37:48;3.35;;;1.42;;
2177;SDS011;1095;50.992;6.798;2022-10-16T13:40:21;5.80;;;1.88;;
2177;SDS011;1095;50.992;6.798;2022-10-16T13:42:49;5.00;;;1.42;;
2177;SDS011;1095;50.992;6.798;2022-10-16T13:45:17;2.70;;;1.38;;
2177;SDS011;1095;50.992;6.798;2022-10-16T13:47:46;3.17;;;1.50;;
2177;SDS011;1095;50.992;6.798;2022-10-16T13:50:14;3.05;;;1.25;;
2177;SDS011;1095;50.992;6.798;2022-10-16T13:52:42;2.45;;;1.58;;
2177;SDS011;1095;50.992;6.798;2022-10-16T13:55:10;2.85;;;1.52;;
2177;SDS011;1095;50.992;6.798;2022-10-16T13:57:39;3.83;;;1.27;;
2177;SDS011;1095;50.992;6.798;2022-10-16T14:02:52;3.13;;;2.05;;
2177;SDS011;1095;50.992;6.798;2022-10-16T14:05:23;4.80;;;1.70;;
2177;SDS011;1095;50.992;6.798;2022-10-16T14:07:50;3.88;;;1.23;;
2177;SDS011;1095;50.992;6.798;2022-10-16T14:10:20;4.88;;;1.30;;
2177;SDS011;1095;50.992;6.798;2022-10-16T14:12:58;5.53;;;2.25;;
2177;SDS011;1095;50.992;6.798;2022-10-16T14:15:29;2.58;;;1.27;;
2177;SDS011;1095;50.992;6.798;2022-10-16T14:17:57;3.10;;;1.83;;
2177;SDS011;1095;50.992;6.798;2022-10-16T14:20:25;2.15;;;1.13;;
2177;SDS011;1095;50.992;6.798;2022-10-16T14:23:00;1.67;;;1.33;;
2177;SDS011;1095;50.992;6.798;2022-10-16T14:25:31;1.42;;;0.98;;
2177;SDS011;1095;50.992;6.798;2022-10-16T14:28:04;4.90;;;1.60;;
2177;SDS011;1095;50.992;6.798;2022-10-16T14:30:56;3.03;;;1.25;;
2177;SDS011;1095;50.992;6.798;2022-10-16T14:33:30;1.85;;;1.30;;
2177;SDS011;1095;50.992;6.798;2022-10-16T14:36:00;4.72;;;1.20;;
2177;SDS011;1095;50.992;6.798;2022-10-16T14:38:29;4.15;;;1.35;;
2177;SDS011;1095;50.992;6.798;2022-10-16T14:40:57;1.52;;;0.98;;
2177;SDS011;1095;50.992;6.798;2022-10-16T14:43:29;1.65;;;1.55;;
2177;SDS011;1095;50.992;6.798;2022-10-16T14:45:59;2.35;;;1.60;;
2177;SDS011;1095;50.992;6.798;2022-10-16T14:48:28;2.67;;;1.42;;
2177;SDS011;1095;50.992;6.798;2022-10-16T14:50:55;2.45;;;1.33;;
2177;SDS011;1095;50.992;6.798;2022-10-16T14:53:22;2.67;;;1.50;;
2177;SDS011;1095;50.992;6.798;2022-10-16T14:55:49;2.13;;;1.50;;
2177;SDS011;1095;50.992;6.798;2022-10-16T14:58:17;3.33;;;1.67;;
2177;SDS011;1095;50.992;6.798;2022-10-16T15:00:46;3.78;;;1.52;;
2177;SDS011;1095;50.992;6.798;2022-10-16T15:03:14;2.22;;;1.48;;
2177;SDS011;1095;50.992;6.798;2022-10-16T15:05:41;3.75;;;1.80;;
2177;SDS011;1095;50.992;6.798;2022-10-16T15:08:08;4.03;;;1.77;;
2177;SDS011;1095;50.992;6.798;2022-10-16T15:10:35;1.75;;;1.40;;
2177;SDS011;1095;50.992;6.798;2022-10-16T15:13:05;2.53;;;1.50;;
2177;SDS011;1095;50.992;6.798;2022-10-16T15:15:33;6.35;;;2.20;;
2177;SDS011;1095;50.992;6.798;2022-10-16T15:18:02;1.77;;;1.30;;
2177;SDS011;1095;50.992;6.798;2022-10-16T15:20:31;3.30;;;1.65;;
2177;SDS011;1095;50.992;6.798;2022-10-16T15:23:00;3.38;;;1.70;;
2177;SDS011;1095;50.992;6.798;2022-10-16T15:25:32;3.85;;;1.67;;
2177;SDS011;1095;50.992;6.798;2022-10-16T15:28:04;2.53;;;1.60;;
2177;SDS011;1095;50.992;6.798;2022-10-16T15:30:32;3.33;;;1.40;;
2177;SDS011;1095;50.992;6.798;2022-10-16T15:32:59;3.30;;;1.45;;
2177;SDS011;1095;50.992;6.798;2022-10-16T15:35:27;4.10;;;1.48;;
2177;SDS011;1095;50.992;6.798;2022-10-16T15:37:54;2.33;;;1.80;;
2177;SDS011;1095;50.992;6.798;2022-10-16T15:40:23;3.75;;;2.10;;
2177;SDS011;1095;50.992;6.798;2022-10-16T15:42:50;3.20;;;1.95;;
2177;SDS011;1095;50.992;6.798;2022-10-16T15:45:16;4.82;;;1.80;;